createdAt,value
2023-02-14T00:01:11.329Z,101399.78
2023-02-14T00:03:38.139Z,101393.69
2023-02-14T00:06:10.459Z,101388.16
2023-02-14T00:08:37.662Z,101391.88
2023-02-14T00:11:05.542Z,101392.88
2023-02-14T00:13:32.468Z,101401.66
2023-02-14T00:15:59.175Z,101400.09
2023-02-14T00:18:48.670Z,101406.63
2023-02-14T00:21:15.301Z,101397.97
2023-02-14T00:23:42.071Z,101399.38
2023-02-14T00:26:14.872Z,101405.63
2023-02-14T00:28:41.483Z,101393.41
2023-02-14T00:31:08.338Z,101401.50
2023-02-14T00:33:35.069Z,101392.13
2023-02-14T00:36:07.127Z,101387.00
2023-02-14T00:38:34.747Z,101387.44
2023-02-14T00:41:02.236Z,101389.59
2023-02-14T00:43:29.344Z,101379.38
2023-02-14T00:45:56.056Z,101376.38
2023-02-14T00:48:22.713Z,101377.97
2023-02-14T00:50:49.336Z,101372.72
2023-02-14T00:53:15.987Z,101378.94
2023-02-14T00:55:45.303Z,101382.09
2023-02-14T00:58:12.000Z,101384.19
2023-02-14T01:00:38.731Z,101383.47
2023-02-14T01:03:05.327Z,101385.75
2023-02-14T01:05:31.935Z,101368.28
2023-02-14T01:07:58.536Z,101361.44
2023-02-14T01:10:25.143Z,101370.97
2023-02-14T01:12:51.787Z,101369.97
2023-02-14T01:15:18.437Z,101364.81
2023-02-14T01:17:45.052Z,101372.22
2023-02-14T01:20:11.886Z,101379.13
2023-02-14T01:22:39.309Z,101380.53
2023-02-14T01:25:06.957Z,101372.16
2023-02-14T01:27:33.740Z,101375.09
2023-02-14T01:30:00.500Z,101374.25
2023-02-14T01:32:31.488Z,101372.94
2023-02-14T01:34:58.358Z,101377.22
2023-02-14T01:37:25.063Z,101362.94
2023-02-14T01:39:51.661Z,101370.75
2023-02-14T01:42:18.298Z,101360.50
2023-02-14T01:44:44.881Z,101368.16
2023-02-14T01:47:12.492Z,101371.16
2023-02-14T01:49:43.802Z,101367.03
2023-02-14T01:52:15.961Z,101374.13
2023-02-14T01:54:48.934Z,101382.63
2023-02-14T01:57:19.288Z,101371.66
2023-02-14T01:59:52.524Z,101383.50
2023-02-14T02:02:23.766Z,101377.81
2023-02-14T02:04:55.805Z,101374.31
2023-02-14T02:07:26.594Z,101361.19
2023-02-14T02:09:57.412Z,101386.06
2023-02-14T02:12:24.812Z,101374.09
2023-02-14T02:14:54.234Z,101368.38
2023-02-14T02:17:33.242Z,101378.22
2023-02-14T02:20:28.600Z,101366.78
2023-02-14T02:23:28.862Z,101361.91
2023-02-14T02:26:04.567Z,101366.31
2023-02-14T02:28:55.999Z,101361.44
2023-02-14T02:31:53.550Z,101367.44
2023-02-14T02:34:30.307Z,101362.38
2023-02-14T02:37:15.576Z,101364.69
2023-02-14T02:40:03.230Z,101363.84
2023-02-14T02:42:54.308Z,101372.47
2023-02-14T02:45:35.931Z,101367.91
2023-02-14T02:48:10.542Z,101371.97
2023-02-14T02:51:03.770Z,101368.25
2023-02-14T02:53:59.133Z,101360.44
2023-02-14T02:56:45.833Z,101356.50
2023-02-14T02:59:21.338Z,101353.03
2023-02-14T03:02:11.569Z,101355.25
2023-02-14T03:04:54.246Z,101354.16
2023-02-14T03:07:35.361Z,101347.38
2023-02-14T03:10:20.299Z,101346.81
2023-02-14T03:13:04.906Z,101351.81
2023-02-14T03:15:46.378Z,101347.13
2023-02-14T03:18:51.038Z,101330.94
2023-02-14T03:21:26.528Z,101324.13
2023-02-14T03:24:24.518Z,101320.88
2023-02-14T03:26:51.008Z,101325.03
2023-02-14T03:29:40.409Z,101326.72
2023-02-14T03:32:15.603Z,101325.03
2023-02-14T03:34:58.559Z,101325.34
2023-02-14T03:37:49.513Z,101329.03
2023-02-14T03:40:36.435Z,101327.25
2023-02-14T03:43:14.430Z,101337.75
2023-02-14T03:45:51.992Z,101329.34
2023-02-14T03:48:21.767Z,101327.41
2023-02-14T03:50:50.083Z,101340.91
2023-02-14T03:53:22.342Z,101342.44
2023-02-14T03:56:32.427Z,101341.09
2023-02-14T03:59:06.118Z,101330.53
2023-02-14T04:01:42.593Z,101340.72
2023-02-14T04:04:10.027Z,101336.38
2023-02-14T04:06:36.682Z,101343.19
2023-02-14T04:09:03.783Z,101339.34
2023-02-14T04:11:35.134Z,101345.31
2023-02-14T04:14:02.688Z,101336.47
2023-02-14T04:16:29.326Z,101336.19
2023-02-14T04:19:14.478Z,101339.97
2023-02-14T04:21:41.103Z,101332.63
2023-02-14T04:24:07.806Z,101338.88
2023-02-14T04:26:34.414Z,101333.19
2023-02-14T04:29:01.048Z,101337.72
2023-02-14T04:31:27.868Z,101341.13
2023-02-14T04:33:54.634Z,101329.22
2023-02-14T04:36:21.234Z,101336.34
2023-02-14T04:38:47.850Z,101330.69
2023-02-14T04:41:14.435Z,101329.16
2023-02-14T04:43:41.011Z,101337.41
2023-02-14T04:46:07.655Z,101333.22
2023-02-14T04:48:34.257Z,101341.34
2023-02-14T04:51:01.225Z,101336.41
2023-02-14T04:53:28.078Z,101329.84
2023-02-14T04:55:54.707Z,101330.41
2023-02-14T04:58:21.324Z,101331.25
2023-02-14T05:00:48.295Z,101330.94
2023-02-14T05:03:15.049Z,101335.34
2023-02-14T05:05:41.718Z,101339.44
2023-02-14T05:08:08.351Z,101338.25
2023-02-14T05:10:35.006Z,101338.50
2023-02-14T05:13:02.033Z,101343.56
2023-02-14T05:15:28.661Z,101337.31
2023-02-14T05:17:55.257Z,101328.06
2023-02-14T05:20:21.954Z,101325.91
2023-02-14T05:22:48.603Z,101326.41
2023-02-14T05:25:15.258Z,101322.38
2023-02-14T05:27:41.908Z,101334.94
2023-02-14T05:30:10.028Z,101332.22
2023-02-14T05:32:36.705Z,101319.22
2023-02-14T05:35:03.782Z,101320.47
2023-02-14T05:37:30.623Z,101319.50
2023-02-14T05:39:57.250Z,101325.59
2023-02-14T05:42:23.871Z,101331.69
2023-02-14T05:44:50.541Z,101328.47
2023-02-14T05:47:17.164Z,101332.56
2023-02-14T05:49:43.770Z,101324.28
2023-02-14T05:52:10.395Z,101324.94
2023-02-14T05:54:37.033Z,101327.72
2023-02-14T05:57:03.693Z,101334.81
2023-02-14T05:59:30.370Z,101329.63
2023-02-14T06:01:57.172Z,101330.16
2023-02-14T06:04:23.913Z,101329.69
2023-02-14T06:06:50.573Z,101332.28
2023-02-14T06:09:17.285Z,101328.53
2023-02-14T06:11:43.902Z,101321.81
2023-02-14T06:14:10.573Z,101323.50
2023-02-14T06:16:37.272Z,101323.19
2023-02-14T06:19:03.951Z,101328.78
2023-02-14T06:21:30.584Z,101327.97
2023-02-14T06:23:57.272Z,101330.72
2023-02-14T06:26:27.850Z,101334.81
2023-02-14T06:28:56.355Z,101329.41
2023-02-14T06:31:23.217Z,101335.69
2023-02-14T06:33:49.917Z,101336.56
2023-02-14T06:36:16.622Z,101330.84
2023-02-14T06:38:43.364Z,101331.84
2023-02-14T06:41:11.229Z,101327.78
2023-02-14T06:43:38.521Z,101335.44
2023-02-14T06:46:05.410Z,101323.09
2023-02-14T06:48:32.238Z,101326.16
2023-02-14T06:50:59.115Z,101323.97
2023-02-14T06:53:26.166Z,101325.66
2023-02-14T06:55:52.820Z,101324.81
2023-02-14T06:58:19.728Z,101318.69
2023-02-14T07:00:47.289Z,101310.88
2023-02-14T07:03:14.672Z,101307.19
2023-02-14T07:05:41.397Z,101312.25
2023-02-14T07:08:08.256Z,101310.56
2023-02-14T07:10:35.305Z,101312.94
2023-02-14T07:13:02.091Z,101319.88
2023-02-14T07:15:29.034Z,101318.34
2023-02-14T07:17:56.180Z,101325.16
2023-02-14T07:20:23.075Z,101327.72
2023-02-14T07:22:49.781Z,101331.94
2023-02-14T07:25:16.770Z,101331.59
2023-02-14T07:27:43.964Z,101338.53
2023-02-14T07:30:11.707Z,101331.41
2023-02-14T07:32:39.216Z,101340.75
2023-02-14T07:35:07.032Z,101347.56
2023-02-14T07:37:35.237Z,101349.25
2023-02-14T07:40:02.272Z,101350.94
2023-02-14T07:42:29.040Z,101355.19
2023-02-14T07:44:55.656Z,101358.75
2023-02-14T07:47:22.309Z,101356.88
2023-02-14T07:49:48.979Z,101352.81
2023-02-14T07:52:15.655Z,101361.47
2023-02-14T07:54:42.285Z,101357.03
2023-02-14T07:57:09.181Z,101363.47
2023-02-14T07:59:35.770Z,101363.81
2023-02-14T08:02:02.452Z,101373.13
2023-02-14T08:04:29.304Z,101366.22
2023-02-14T08:06:55.946Z,101377.41
2023-02-14T08:09:25.694Z,101380.09
2023-02-14T08:12:12.114Z,101380.78
2023-02-14T08:14:38.922Z,101371.28
2023-02-14T08:17:07.370Z,101377.03
2023-02-14T08:19:34.559Z,101374.69
2023-02-14T08:22:01.273Z,101382.13
2023-02-14T08:24:28.323Z,101387.25
2023-02-14T08:26:55.025Z,101385.88
2023-02-14T08:29:21.652Z,101396.72
2023-02-14T08:31:48.866Z,101395.03
2023-02-14T08:34:16.802Z,101400.47
2023-02-14T08:36:43.670Z,101402.84
2023-02-14T08:39:10.593Z,101399.97
2023-02-14T08:41:37.236Z,101401.47
2023-02-14T08:44:04.300Z,101400.44
2023-02-14T08:46:31.054Z,101398.09
2023-02-14T08:48:57.751Z,101403.16
2023-02-14T08:51:25.887Z,101405.88
2023-02-14T08:53:53.254Z,101392.63
2023-02-14T08:56:22.622Z,101390.28
2023-02-14T08:58:52.305Z,101394.84
2023-02-14T09:01:19.194Z,101393.16
2023-02-14T09:03:46.098Z,101387.06
2023-02-14T09:06:17.209Z,101396.38
2023-02-14T09:08:46.558Z,101401.94
2023-02-14T09:11:19.287Z,101399.41
2023-02-14T09:13:47.420Z,101400.09
2023-02-14T09:16:17.345Z,101398.06
2023-02-14T09:18:45.028Z,101395.66
2023-02-14T09:21:14.541Z,101401.28
2023-02-14T09:23:41.360Z,101406.84
2023-02-14T09:26:10.073Z,101407.38
2023-02-14T09:28:37.360Z,101398.88
2023-02-14T09:31:19.226Z,101395.66
2023-02-14T09:33:47.733Z,101397.84
2023-02-14T09:36:20.524Z,101395.75
2023-02-14T09:38:47.469Z,101393.56
2023-02-14T09:41:29.385Z,101396.94
2023-02-14T09:44:01.234Z,101390.31
2023-02-14T09:46:30.781Z,101397.44
2023-02-14T09:48:59.613Z,101401.16
2023-02-14T09:51:29.224Z,101398.59
2023-02-14T09:54:06.155Z,101398.06
2023-02-14T09:56:58.631Z,101401.78
2023-02-14T09:59:43.444Z,101401.25
2023-02-14T10:02:19.504Z,101397.81
2023-02-14T10:05:00.609Z,101396.09
2023-02-14T10:07:58.240Z,101394.84
2023-02-14T10:10:39.754Z,101398.56
2023-02-14T10:13:25.080Z,101390.84
2023-02-14T10:16:00.113Z,101386.41
2023-02-14T10:18:49.557Z,101385.22
2023-02-14T10:21:47.681Z,101390.50
2023-02-14T10:24:21.026Z,101381.69
2023-02-14T10:26:50.013Z,101393.41
2023-02-14T10:29:18.298Z,101388.28
2023-02-14T10:32:01.812Z,101386.34
2023-02-14T10:34:42.083Z,101381.16
2023-02-14T10:37:11.770Z,101378.06
2023-02-14T10:40:07.892Z,101385.50
2023-02-14T10:42:37.661Z,101381.56
2023-02-14T10:45:20.725Z,101379.53
2023-02-14T10:48:01.178Z,101381.31
2023-02-14T10:50:33.514Z,101384.72
2023-02-14T10:53:23.402Z,101388.09
2023-02-14T10:55:59.158Z,101379.28
2023-02-14T10:58:29.113Z,101376.66
2023-02-14T11:01:00.525Z,101368.97
2023-02-14T11:03:29.097Z,101364.09
2023-02-14T11:05:56.420Z,101361.84
2023-02-14T11:08:27.620Z,101353.69
2023-02-14T11:11:19.044Z,101366.75
2023-02-14T11:13:46.285Z,101359.56
2023-02-14T11:16:28.647Z,101368.22
2023-02-14T11:19:15.470Z,101360.78
2023-02-14T11:21:44.528Z,101358.38
2023-02-14T11:24:32.994Z,101355.53
2023-02-14T11:27:11.587Z,101367.13
2023-02-14T11:29:41.210Z,101359.97
2023-02-14T11:32:22.763Z,101362.31
2023-02-14T11:35:19.812Z,101350.28
2023-02-14T11:37:51.301Z,101346.44
2023-02-14T11:40:27.427Z,101358.09
2023-02-14T11:43:02.143Z,101358.56
2023-02-14T11:45:38.826Z,101352.28
2023-02-14T11:48:34.937Z,101349.16
2023-02-14T11:51:11.021Z,101351.97
2023-02-14T11:53:56.146Z,101352.81
2023-02-14T11:56:24.361Z,101344.63
2023-02-14T11:58:57.845Z,101346.31
2023-02-14T12:01:32.851Z,101333.47
2023-02-14T12:04:05.203Z,101327.59
2023-02-14T12:06:35.319Z,101333.34
2023-02-14T12:09:23.786Z,101331.28
2023-02-14T12:12:04.701Z,101327.59
2023-02-14T12:14:34.433Z,101320.38
2023-02-14T12:17:13.381Z,101314.53
2023-02-14T12:19:56.516Z,101311.59
2023-02-14T12:22:28.544Z,101311.03
2023-02-14T12:25:10.647Z,101311.59
2023-02-14T12:27:53.001Z,101302.84
2023-02-14T12:30:22.699Z,101308.78
2023-02-14T12:32:54.660Z,101304.06
2023-02-14T12:35:44.538Z,101316.97
2023-02-14T12:38:46.884Z,101323.63
2023-02-14T12:41:33.967Z,101312.66
2023-02-14T12:44:14.300Z,101310.19
2023-02-14T12:46:49.063Z,101300.44
2023-02-14T12:49:34.127Z,101297.91
2023-02-14T12:52:31.836Z,101291.72
2023-02-14T12:55:41.557Z,101289.72
2023-02-14T12:58:36.086Z,101291.59
2023-02-14T13:01:40.584Z,101287.56
2023-02-14T13:04:26.031Z,101285.16
2023-02-14T13:07:12.415Z,101280.41
2023-02-14T13:09:59.310Z,101270.28
2023-02-14T13:12:58.767Z,101272.56
2023-02-14T13:16:00.741Z,101274.44
2023-02-14T13:19:10.524Z,101265.94
2023-02-14T13:21:39.209Z,101261.25
2023-02-14T13:24:11.693Z,101262.09
2023-02-14T13:26:41.736Z,101256.66
2023-02-14T13:29:16.454Z,101247.03
2023-02-14T13:31:43.593Z,101256.78
2023-02-14T13:34:16.078Z,101250.53
2023-02-14T13:36:44.003Z,101242.13
2023-02-14T13:39:38.672Z,101248.03
2023-02-14T13:42:06.510Z,101249.13
2023-02-14T13:44:50.442Z,101245.56
2023-02-14T13:47:23.475Z,101240.94
2023-02-14T13:50:02.105Z,101233.41
2023-02-14T13:52:48.976Z,101236.75
2023-02-14T13:55:24.526Z,101228.41
2023-02-14T13:58:24.388Z,101218.81
2023-02-14T14:00:52.996Z,101215.72
2023-02-14T14:03:29.199Z,101211.34
2023-02-14T14:06:05.800Z,101210.75
2023-02-14T14:08:36.691Z,101211.44
2023-02-14T14:11:12.711Z,101207.91
2023-02-14T14:13:42.405Z,101207.50
2023-02-14T14:16:26.790Z,101199.94
2023-02-14T14:18:53.607Z,101193.44
2023-02-14T14:21:30.937Z,101193.03
2023-02-14T14:24:19.026Z,101196.19
2023-02-14T14:26:49.023Z,101199.81
2023-02-14T14:29:25.896Z,101191.38
2023-02-14T14:31:55.996Z,101184.69
2023-02-14T14:34:25.947Z,101187.41
2023-02-14T14:37:07.440Z,101188.69
2023-02-14T14:39:36.105Z,101183.03
2023-02-14T14:42:07.893Z,101187.66
2023-02-14T14:44:36.186Z,101180.06
2023-02-14T14:47:05.587Z,101167.69
2023-02-14T14:49:32.952Z,101164.16
2023-02-14T14:51:59.794Z,101160.34
2023-02-14T14:54:27.654Z,101169.84
2023-02-14T14:57:03.800Z,101163.94
2023-02-14T14:59:43.750Z,101171.75
2023-02-14T15:02:30.466Z,101161.28
2023-02-14T15:04:57.135Z,101154.53
2023-02-14T15:07:32.886Z,101150.34
2023-02-14T15:10:00.111Z,101155.41
2023-02-14T15:12:46.028Z,101146.97
2023-02-14T15:15:16.972Z,101141.94
2023-02-14T15:17:45.599Z,101136.03
2023-02-14T15:20:23.835Z,101141.72
2023-02-14T15:22:52.938Z,101144.25
2023-02-14T15:25:27.110Z,101142.81
2023-02-14T15:27:53.911Z,101133.97
2023-02-14T15:30:20.787Z,101139.00
2023-02-14T15:32:50.597Z,101127.22
2023-02-14T15:35:24.163Z,101125.31
2023-02-14T15:37:52.197Z,101129.53
2023-02-14T15:40:31.182Z,101125.34
2023-02-14T15:43:24.994Z,101128.91
2023-02-14T15:45:57.508Z,101121.75
2023-02-14T15:48:33.412Z,101123.66
2023-02-14T15:51:02.532Z,101111.22
2023-02-14T15:53:42.969Z,101109.34
2023-02-14T15:56:21.140Z,101113.75
2023-02-14T15:58:49.628Z,101113.75
2023-02-14T16:01:21.679Z,101108.91
2023-02-14T16:03:52.480Z,101112.94
2023-02-14T16:06:43.759Z,101113.34
2023-02-14T16:09:28.569Z,101101.53
2023-02-14T16:11:55.310Z,101109.75
2023-02-14T16:14:37.133Z,101103.44
2023-02-14T16:17:14.161Z,101108.06
2023-02-14T16:19:43.517Z,101109.13
2023-02-14T16:22:32.209Z,101109.13
2023-02-14T16:24:59.805Z,101110.19
2023-02-14T16:27:26.935Z,101100.72
2023-02-14T16:29:53.653Z,101090.19
2023-02-14T16:32:22.816Z,101095.66
2023-02-14T16:34:50.510Z,101090.81
2023-02-14T16:37:33.284Z,101096.06
2023-02-14T16:40:01.405Z,101097.53
2023-02-14T16:42:28.223Z,101095.66
2023-02-14T16:44:55.526Z,101089.75
2023-02-14T16:47:22.528Z,101095.44
2023-02-14T16:49:50.691Z,101090.59
2023-02-14T16:52:23.485Z,101092.84
2023-02-14T16:54:50.396Z,101086.53
2023-02-14T16:57:22.373Z,101087.56
2023-02-14T16:59:50.653Z,101089.63
2023-02-14T17:02:19.267Z,101090.47
2023-02-14T17:04:46.126Z,101089.59
2023-02-14T17:07:15.832Z,101086.63
2023-02-14T17:09:49.400Z,101090.59
2023-02-14T17:12:25.122Z,101093.69
2023-02-14T17:14:56.161Z,101095.53
2023-02-14T17:17:22.870Z,101096.91
2023-02-14T17:19:51.551Z,101093.91
2023-02-14T17:22:19.549Z,101095.72
2023-02-14T17:24:46.768Z,101102.09
2023-02-14T17:27:14.276Z,101098.88
2023-02-14T17:29:41.835Z,101103.47
2023-02-14T17:32:12.887Z,101103.84
2023-02-14T17:34:40.910Z,101105.25
2023-02-14T17:37:07.625Z,101096.94
2023-02-14T17:39:35.158Z,101103.09
2023-02-14T17:42:02.463Z,101104.53
2023-02-14T17:44:32.611Z,101099.88
2023-02-14T17:46:59.622Z,101104.41
2023-02-14T17:49:26.826Z,101103.75
2023-02-14T17:51:53.499Z,101096.44
2023-02-14T17:54:20.191Z,101101.78
2023-02-14T17:56:46.818Z,101098.09
2023-02-14T17:59:13.497Z,101100.91
2023-02-14T18:01:40.273Z,101099.16
2023-02-14T18:04:07.293Z,101096.56
2023-02-14T18:06:34.724Z,101094.41
2023-02-14T18:09:05.651Z,101098.44
2023-02-14T18:11:32.468Z,101095.25
2023-02-14T18:14:00.028Z,101091.28
2023-02-14T18:16:27.260Z,101096.09
2023-02-14T18:18:55.296Z,101094.41
2023-02-14T18:21:24.308Z,101087.91
2023-02-14T18:23:51.065Z,101083.31
2023-02-14T18:26:18.837Z,101084.81
2023-02-14T18:28:46.206Z,101083.50
2023-02-14T18:31:17.137Z,101078.06
2023-02-14T18:33:46.810Z,101069.63
2023-02-14T18:36:17.077Z,101070.63
2023-02-14T18:38:46.685Z,101072.63
2023-02-14T18:41:16.067Z,101071.97
2023-02-14T18:43:44.842Z,101072.06
2023-02-14T18:46:23.774Z,101065.25
2023-02-14T18:48:51.461Z,101066.66
2023-02-14T18:51:23.962Z,101067.56
2023-02-14T18:53:52.373Z,101062.03
2023-02-14T18:56:21.809Z,101062.28
2023-02-14T18:58:52.850Z,101061.06
2023-02-14T19:01:23.029Z,101063.84
2023-02-14T19:03:51.497Z,101060.09
2023-02-14T19:06:19.905Z,101061.56
2023-02-14T19:08:46.929Z,101063.34
2023-02-14T19:11:23.813Z,101058.75
2023-02-14T19:13:54.582Z,101062.59
2023-02-14T19:16:33.829Z,101053.25
2023-02-14T19:19:02.661Z,101061.28
2023-02-14T19:21:34.861Z,101061.38
2023-02-14T19:24:04.157Z,101050.19
2023-02-14T19:26:35.168Z,101053.56
2023-02-14T19:29:05.545Z,101051.50
2023-02-14T19:31:36.575Z,101044.38
2023-02-14T19:34:06.226Z,101048.63
2023-02-14T19:36:36.430Z,101048.06
2023-02-14T19:39:03.743Z,101047.97
2023-02-14T19:41:34.370Z,101047.03
2023-02-14T19:44:04.737Z,101041.97
2023-02-14T19:46:33.009Z,101042.34
2023-02-14T19:49:00.659Z,101038.31
2023-02-14T19:51:32.860Z,101035.09
2023-02-14T19:54:01.524Z,101030.03
2023-02-14T19:56:31.566Z,101030.38
2023-02-14T19:58:59.023Z,101031.84
2023-02-14T20:01:36.198Z,101034.56
2023-02-14T20:04:04.051Z,101032.09
2023-02-14T20:06:31.368Z,101031.81
2023-02-14T20:08:58.106Z,101036.44
2023-02-14T20:11:33.640Z,101026.13
2023-02-14T20:14:01.639Z,101027.50
2023-02-14T20:16:30.976Z,101027.84
2023-02-14T20:18:58.663Z,101024.09
2023-02-14T20:21:28.361Z,101027.25
2023-02-14T20:24:00.929Z,101023.53
2023-02-14T20:26:32.858Z,101024.03
2023-02-14T20:29:03.996Z,101020.47
2023-02-14T20:31:33.288Z,101013.38
2023-02-14T20:34:00.703Z,101008.28
2023-02-14T20:36:27.494Z,101008.19
2023-02-14T20:39:00.869Z,101009.38
2023-02-14T20:41:29.094Z,101000.19
2023-02-14T20:44:03.317Z,100997.47
2023-02-14T20:46:31.004Z,100997.50
2023-02-14T20:48:57.695Z,100988.91
2023-02-14T20:51:25.890Z,100988.56
2023-02-14T20:53:53.891Z,100994.53
2023-02-14T20:56:25.167Z,100994.53
2023-02-14T20:58:51.769Z,100991.19
2023-02-14T21:01:21.613Z,100991.88
2023-02-14T21:03:50.906Z,100997.47
2023-02-14T21:06:19.059Z,101001.22
2023-02-14T21:08:46.073Z,100984.44
2023-02-14T21:11:16.305Z,100994.28
2023-02-14T21:13:43.608Z,100989.84
2023-02-14T21:16:18.603Z,100994.94
2023-02-14T21:18:48.855Z,100993.25
2023-02-14T21:21:21.822Z,100989.81
2023-02-14T21:23:52.320Z,100980.13
2023-02-14T21:26:20.276Z,100985.72
2023-02-14T21:28:48.009Z,100986.66
2023-02-14T21:31:17.340Z,100987.69
2023-02-14T21:33:44.427Z,100984.63
2023-02-14T21:36:14.131Z,100991.69
2023-02-14T21:38:42.682Z,100985.25
2023-02-14T21:41:12.522Z,100984.41
2023-02-14T21:43:41.469Z,100978.97
2023-02-14T21:46:12.529Z,100985.78
2023-02-14T21:48:58.740Z,100977.53
2023-02-14T21:51:27.463Z,100975.16
2023-02-14T21:53:54.811Z,100980.28
2023-02-14T21:56:22.843Z,100973.50
2023-02-14T21:58:52.821Z,100967.47
2023-02-14T22:01:30.144Z,100975.25
2023-02-14T22:03:59.274Z,100975.06
2023-02-14T22:06:27.627Z,100971.28
2023-02-14T22:08:56.661Z,100974.13
2023-02-14T22:11:25.288Z,100968.09
2023-02-14T22:13:52.040Z,100961.69
2023-02-14T22:16:20.796Z,100952.88
2023-02-14T22:18:48.331Z,100954.78
2023-02-14T22:21:26.691Z,100958.22
2023-02-14T22:23:56.923Z,100952.00
2023-02-14T22:26:33.923Z,100947.53
2023-02-14T22:29:02.238Z,100950.69
2023-02-14T22:31:33.635Z,100945.78
2023-02-14T22:34:00.843Z,100947.47
2023-02-14T22:36:27.768Z,100949.81
2023-02-14T22:38:57.273Z,100947.81
2023-02-14T22:41:25.462Z,100942.75
2023-02-14T22:43:53.746Z,100939.72
2023-02-14T22:46:28.383Z,100933.63
2023-02-14T22:48:57.361Z,100932.97
2023-02-14T22:51:33.407Z,100935.19
2023-02-14T22:54:06.104Z,100927.91
2023-02-14T22:56:38.961Z,100933.84
2023-02-14T22:59:08.036Z,100937.75
2023-02-14T23:01:35.579Z,100932.81
2023-02-14T23:04:03.471Z,100937.75
2023-02-14T23:06:32.109Z,100938.06
2023-02-14T23:08:58.934Z,100929.88
2023-02-14T23:11:30.664Z,100933.31
2023-02-14T23:14:16.525Z,100928.44
2023-02-14T23:17:02.641Z,100933.69
2023-02-14T23:19:52.153Z,100922.91
2023-02-14T23:22:21.809Z,100923.59
2023-02-14T23:24:50.512Z,100926.63
2023-02-14T23:27:19.777Z,100924.97
2023-02-14T23:29:46.837Z,100924.00
2023-02-14T23:32:14.408Z,100913.00
2023-02-14T23:34:42.545Z,100919.63
2023-02-14T23:37:10.287Z,100910.19
2023-02-14T23:39:37.721Z,100910.88
2023-02-14T23:42:14.849Z,100917.00
2023-02-14T23:44:43.451Z,100913.94
2023-02-14T23:47:11.085Z,100911.28
2023-02-14T23:49:39.675Z,100913.66
2023-02-14T23:52:12.369Z,100900.63
2023-02-14T23:54:39.984Z,100893.38
2023-02-14T23:57:07.575Z,100889.31
2023-02-14T23:59:34.612Z,100886.59
